EW3858 Houma LA US current weather conditions

sailwx.info

Wind from 154 at 4 knots gusting 5

Air temperature 30.6° C
Dewpoint 23.5° C

Last reported at 2020-Sep-27 21:58 UTC.
Time now 2020-Sep-27 22:30 UTC

Location: N 29°33' W 090°38'.
View on Google Maps.

See reports from other nearby stations

  
Tides and Currents Weather Stations Pressure Air Temp Water Temp Dewpoint Dewpoint Depression Visibility Wind Speed Wind Dir Waves Ship Positions
date/time (UTC)wind fromknots sea level pressurealtimeterstation pressurevisibilityair tempwater tempwave heightnotes
2020-Sep-27 22:08 041 5 gusting 7 30.0
2020-Sep-27 22:03 156 5 gusting 7 30.0
2020-Sep-27 21:58 154 4 gusting 5 30.6
2020-Sep-27 21:53 190 4 gusting 6 30.6
2020-Sep-27 21:48 189 3 gusting 5 30.6
2020-Sep-27 21:43 135 2 gusting 5 31.1
2020-Sep-27 21:38 185 4 gusting 6 30.6
2020-Sep-27 21:33 124 5 gusting 6 30.6
2020-Sep-27 21:28 168 4 gusting 6 30.6
2020-Sep-27 21:23 153 5 gusting 6 31.1
2020-Sep-27 21:18 125 4 gusting 6 31.1
2020-Sep-27 21:13 141 4 gusting 5 31.1
2020-Sep-27 21:08 178 4 gusting 6 30.6
2020-Sep-27 21:03 151 4 gusting 6 31.1
2020-Sep-27 20:58 167 4 gusting 6 31.1
2020-Sep-27 20:53 182 5 gusting 7 31.1
2020-Sep-27 20:48 133 5 gusting 6 31.1
2020-Sep-27 20:43 161 4 gusting 6 31.1
2020-Sep-27 20:38 138 3 gusting 6 31.1
2020-Sep-27 20:33 153 4 gusting 6 31.1
2020-Sep-27 20:28 135 4 gusting 6 31.1
2020-Sep-27 20:23 125 4 gusting 6 31.1
2020-Sep-27 20:18 147 4 gusting 6 31.1
2020-Sep-27 20:13 122 4 gusting 6 31.1
2020-Sep-27 20:08 158 4 gusting 6 31.1
2020-Sep-27 20:03 125 5 gusting 6 31.1
2020-Sep-27 19:58 147 5 gusting 7 31.1
2020-Sep-27 19:53 113 5 gusting 6 31.1
2020-Sep-27 19:48 158 5 gusting 7 31.7
2020-Sep-27 19:43 166 5 gusting 6 31.1
2020-Sep-27 19:38 144 4 gusting 6 31.7
2020-Sep-27 19:33 186 4 gusting 6 31.7
2020-Sep-27 19:28 156 5 gusting 5 31.7
2020-Sep-27 19:23 132 5 gusting 6 31.7
2020-Sep-27 19:18 129 3 gusting 5 31.7
2020-Sep-27 19:13 201 3 gusting 5 31.7
2020-Sep-27 19:08 118 4 gusting 6 31.7
2020-Sep-27 19:03 192 4 gusting 5 32.2
2020-Sep-27 18:58 159 3 gusting 5 32.8
2020-Sep-27 18:53 172 0 gusting 4 32.8
2020-Sep-27 18:48 185 4 gusting 5 32.8
2020-Sep-27 18:43 183 2 gusting 4 32.8
2020-Sep-27 18:38 265 2 gusting 4 31.7
2020-Sep-27 18:33 179 4 gusting 6 31.7
2020-Sep-27 18:28 133 2 gusting 6 31.7
2020-Sep-27 18:23 158 4 gusting 6 31.1
2020-Sep-27 18:18 134 6 gusting 6 31.1
2020-Sep-27 18:13 134 4 gusting 4 31.7
2020-Sep-27 18:08 167 4 gusting 5 31.7
2020-Sep-27 18:03 125 4 gusting 6 31.7
2020-Sep-27 17:58 158 3 gusting 5 31.7
2020-Sep-27 17:53 151 4 gusting 5 31.7
2020-Sep-27 17:48 266 2 gusting 4 32.2
2020-Sep-27 17:43 286 2 gusting 4 33.3
2020-Sep-27 17:38 187 0 gusting 2 32.8
2020-Sep-27 17:33 333 1 gusting 4 32.8
2020-Sep-27 17:28 255 2 gusting 4 33.3
2020-Sep-27 17:23 233 2 gusting 2 32.8
2020-Sep-27 17:18 299 1 gusting 1 32.8
2020-Sep-27 17:13 248 2 gusting 4 32.2
2020-Sep-27 17:08 264 1 gusting 2 32.2
2020-Sep-27 17:03 225 1 gusting 2 32.8
2020-Sep-27 16:58 256 1 gusting 4 32.8
2020-Sep-27 16:53 038 2 gusting 4 31.7
2020-Sep-27 16:48 340 1 gusting 2 31.7
2020-Sep-27 16:43 264 2 gusting 4 32.2
2020-Sep-27 16:38 242 1 gusting 4 32.2
2020-Sep-27 16:33 234 1 gusting 1 31.7
2020-Sep-27 16:28 158 2 gusting 5 31.1
2020-Sep-27 16:23 270 1 gusting 2 32.2
2020-Sep-27 16:18 270 3 gusting 5 31.7
2020-Sep-27 16:13 291 2 gusting 4 32.2
2020-Sep-27 16:08 275 2 gusting 4 31.7
2020-Sep-27 16:03 270 2 gusting 2 32.2
2020-Sep-27 15:58 107 31.7
2020-Sep-27 15:53 119 2 gusting 4 30.6
2020-Sep-27 15:48 314 1 gusting 2 31.1
2020-Sep-27 15:43 270 1 gusting 4 30.6
2020-Sep-27 15:38 221 1 gusting 1 31.1
2020-Sep-27 15:33 331 1 gusting 2 30.6
2020-Sep-27 15:28 258 1 gusting 4 30.0
2020-Sep-27 15:23 324 1 gusting 2 30.0
2020-Sep-27 15:18 244 1 gusting 2 30.0
2020-Sep-27 15:13 250 1 gusting 4 30.6
2020-Sep-27 15:08 294 0 gusting 2 29.4
2020-Sep-27 15:03 274 1 gusting 2 30.0
2020-Sep-27 14:58 268 1 gusting 2 30.0
2020-Sep-27 14:53 268 1 gusting 2 30.0
2020-Sep-27 14:48 257 1 gusting 1 29.4
2020-Sep-27 14:43 270 1 gusting 2 29.4
2020-Sep-27 14:38 237 1 gusting 2 29.4
2020-Sep-27 14:33 270 0 gusting 2 28.9
2020-Sep-27 14:28 218 0 gusting 2 29.4
2020-Sep-27 14:23 176 1 gusting 2 28.9
2020-Sep-27 14:18 279 29.4
2020-Sep-27 14:13 196 30.6
2020-Sep-27 14:08 096 1 gusting 1 29.4
2020-Sep-27 14:03 249 29.4
2020-Sep-27 13:58 214 28.9
2020-Sep-27 13:53 104 28.3
2020-Sep-27 13:48 204 27.8
2020-Sep-27 13:43 177 26.7
2020-Sep-27 13:38 315 25.0
2020-Sep-27 13:33 307 0 gusting 0 23.9
2020-Sep-27 13:28 297 23.3
2020-Sep-27 13:23 328 22.8
2020-Sep-27 13:18 315 22.2
2020-Sep-27 13:13 270 22.2
2020-Sep-27 13:08 302 22.2
2020-Sep-27 13:03 270 21.7
2020-Sep-27 12:58 225 21.7
2020-Sep-27 12:53 252 21.7
2020-Sep-27 12:48 144 21.1
2020-Sep-27 12:43 221 21.1
2020-Sep-27 12:38 163 21.1
2020-Sep-27 12:33 290 20.6
2020-Sep-27 12:28 292 20.6
2020-Sep-27 12:23 292 20.6
2020-Sep-27 12:18 292 20.6
2020-Sep-27 12:13 292 20.0
2020-Sep-27 12:08 306 0 gusting 0 20.0
2020-Sep-27 12:03 292 20.0
2020-Sep-27 11:58 248 20.0
2020-Sep-27 11:53 248 20.0
2020-Sep-27 11:48 248 20.0
2020-Sep-27 11:43 248 20.0
2020-Sep-27 11:38 248 20.6
2020-Sep-27 11:33 202 20.6
2020-Sep-27 11:28 248 20.6
2020-Sep-27 11:23 096 20.6
2020-Sep-27 11:18 295 0 gusting 1 20.6
2020-Sep-27 11:13 225 20.6
2020-Sep-27 11:08 278 20.6
2020-Sep-27 11:03 258 20.6
2020-Sep-27 10:58 225 20.6
2020-Sep-27 10:53 292 20.6
2020-Sep-27 10:48 292 20.6
2020-Sep-27 10:43 292 20.6
2020-Sep-27 10:38 292 20.6
2020-Sep-27 10:33 292 20.6
2020-Sep-27 10:28 292 20.6
2020-Sep-27 10:23 288 20.6
2020-Sep-27 10:18 274 20.6
2020-Sep-27 10:13 225 20.6
2020-Sep-27 10:08 158 20.6
2020-Sep-27 10:03 292 21.1
2020-Sep-27 09:58 315 21.1
2020-Sep-27 09:53 325 21.1
2020-Sep-27 09:48 225 21.1
2020-Sep-27 09:43 202 21.1
2020-Sep-27 09:38 292 21.1
2020-Sep-27 09:33 270 21.1
2020-Sep-27 09:28 270 21.7
2020-Sep-27 09:23 270 21.7
2020-Sep-27 09:18 270 21.7
2020-Sep-27 09:13 236 21.7
2020-Sep-27 09:08 242 21.7
2020-Sep-27 09:03 261 21.7
2020-Sep-27 08:58 229 0 gusting 1 21.7
2020-Sep-27 08:53 201 0 gusting 0 22.2
2020-Sep-27 08:48 173 21.7
2020-Sep-27 08:43 188 21.7
2020-Sep-27 08:38 248 21.7
2020-Sep-27 08:33 292 21.7
2020-Sep-27 08:28 280 22.2
2020-Sep-27 08:23 268 22.2
2020-Sep-27 08:18 233 22.2
2020-Sep-27 08:13 211 22.2
2020-Sep-27 08:08 248 22.2
2020-Sep-27 08:03 199 22.2
2020-Sep-27 07:58 185 0 gusting 1 22.2
2020-Sep-27 07:53 189 1 gusting 1 22.2
2020-Sep-27 07:48 225 0 gusting 0 21.7
2020-Sep-27 07:43 248 0 gusting 0 21.7
2020-Sep-27 07:38 248 0 gusting 0 21.7
2020-Sep-27 07:33 233 21.7
2020-Sep-27 07:28 225 0 gusting 1 21.7
2020-Sep-27 07:23 218 0 gusting 1 22.2
2020-Sep-27 07:18 210 21.7
2020-Sep-27 07:13 223 21.7
2020-Sep-27 07:08 215 21.7
2020-Sep-27 07:03 259 21.7
2020-Sep-27 06:58 236 21.7
2020-Sep-27 06:53 248 21.7
2020-Sep-27 06:48 263 21.7
2020-Sep-27 06:43 255 21.7
2020-Sep-27 06:38 223 0 gusting 1 21.7
2020-Sep-27 06:33 266 0 gusting 1 21.1
2020-Sep-27 06:28 241 21.1
2020-Sep-27 06:23 270 21.1
2020-Sep-27 06:18 270 21.1
2020-Sep-27 06:13 270 21.7
2020-Sep-27 06:08 225 21.7
2020-Sep-27 06:03 180 21.7
2020-Sep-27 05:58 225 21.7
2020-Sep-27 05:53 176 21.7
2020-Sep-27 05:48 171 21.7
2020-Sep-27 05:43 315 21.7
2020-Sep-27 05:38 315 21.7
2020-Sep-27 05:33 306 21.7
2020-Sep-27 05:28 180 21.7
2020-Sep-27 05:23 158 21.7
2020-Sep-27 05:18 180 21.7
2020-Sep-27 05:13 248 21.7
2020-Sep-27 05:08 248 21.7
2020-Sep-27 05:03 248 21.7
2020-Sep-27 04:58 248 21.7
2020-Sep-27 04:53 160 21.7
2020-Sep-27 04:48 158 21.7
2020-Sep-27 04:43 191 22.2
2020-Sep-27 04:38 180 22.2
2020-Sep-27 04:33 135 22.2
2020-Sep-27 04:28 180 22.2
2020-Sep-27 04:23 270 22.2
2020-Sep-27 04:18 270 22.2
2020-Sep-27 04:13 270 22.2
2020-Sep-27 04:08 248 22.2
2020-Sep-27 04:03 248 22.2
2020-Sep-27 03:58 248 22.2
2020-Sep-27 03:53 248 22.2
2020-Sep-27 03:48 248 22.2
2020-Sep-27 03:43 158 22.2
2020-Sep-27 03:38 172 22.2
2020-Sep-27 03:33 158 22.2
2020-Sep-27 03:28 158 22.2
2020-Sep-27 03:23 158 22.8
2020-Sep-27 03:18 158 22.8
2020-Sep-27 03:13 158 22.8
2020-Sep-27 03:08 158 22.8
2020-Sep-27 03:03 248 22.8
2020-Sep-27 02:58 248 22.8
2020-Sep-27 02:53 266 22.8
2020-Sep-27 02:48 270 22.8
2020-Sep-27 02:43 225 23.3
2020-Sep-27 02:38 187 23.3
2020-Sep-27 02:33 269 23.3
2020-Sep-27 02:28 270 23.3
2020-Sep-27 02:23 225 23.3
2020-Sep-27 02:18 225 23.3
2020-Sep-27 02:13 225 23.3
2020-Sep-27 02:08 225 23.9
2020-Sep-27 02:03 022 23.9
2020-Sep-27 01:58 315 23.9
2020-Sep-27 01:53 315 23.9
2020-Sep-27 01:48 045 23.9
2020-Sep-27 01:43 133 1 gusting 1 23.9
2020-Sep-27 01:38 169 24.4
2020-Sep-27 01:33 156 0 gusting 1 24.4
2020-Sep-27 01:28 119 1 gusting 1 24.4
2020-Sep-27 01:23 160 24.4
2020-Sep-27 01:18 172 24.4
2020-Sep-27 01:13 158 24.4
2020-Sep-27 01:08 158 24.4
2020-Sep-27 01:03 194 24.4
2020-Sep-27 00:58 202 24.4
2020-Sep-27 00:53 130 25.0
2020-Sep-27 00:48 147 25.0
2020-Sep-27 00:43 250 0 gusting 1 25.0
2020-Sep-27 00:38 167 25.0
2020-Sep-27 00:33 305 25.6
2020-Sep-27 00:28 185 25.6
2020-Sep-27 00:23 141 25.6
2020-Sep-27 00:18 197 25.6
2020-Sep-27 00:13 180 1 gusting 1 26.1
2020-Sep-27 00:08 176 1 gusting 1 26.1
2020-Sep-27 00:03 178 1 gusting 1 26.1
2020-Sep-26 23:58 180 1 gusting 1 26.1
2020-Sep-26 23:53 192 0 gusting 1 26.7
2020-Sep-26 23:48 152 1 gusting 1 26.7
2020-Sep-26 23:43 158 1 gusting 1 26.7
2020-Sep-26 23:38 201 1 gusting 2 27.2
2020-Sep-26 23:33 180 1 gusting 2 27.2
2020-Sep-26 23:28 188 1 gusting 2 27.8
2020-Sep-26 23:23 146 2 gusting 4 27.8
2020-Sep-26 23:18 152 2 gusting 2 28.3
2020-Sep-26 23:13 145 2 gusting 5 28.3
2020-Sep-26 23:08 147 3 gusting 5 28.3
2020-Sep-26 23:03 168 3 gusting 5 28.3
2020-Sep-26 22:58 147 3 gusting 5 28.3
2020-Sep-26 22:53 160 4 gusting 5 28.3
2020-Sep-26 22:48 209 1 gusting 5 28.9
2020-Sep-26 22:43 150 3 gusting 6 28.3
2020-Sep-26 22:38 146 4 gusting 5 28.3
2020-Sep-26 22:33 158 4 gusting 5 28.9
2020-Sep-26 22:28 180 3 gusting 5 28.9
2020-Sep-26 22:23 177 4 gusting 5 28.9
2020-Sep-26 22:18 172 2 gusting 6 29.4
2020-Sep-26 22:13 137 4 gusting 5 28.9
2020-Sep-26 22:08 140 4 gusting 5 28.9
2020-Sep-26 22:03 149 4 gusting 6 29.4
2020-Sep-26 21:58 126 4 gusting 6 28.9
2020-Sep-26 21:53 158 4 gusting 5 28.9
2020-Sep-26 21:48 160 2 gusting 5 28.9
2020-Sep-26 21:43 112 3 gusting 5 29.4
2020-Sep-26 21:38 150 4 gusting 5 29.4
2020-Sep-26 21:33 142 2 gusting 6 30.0
2020-Sep-26 21:28 157 4 gusting 5 29.4
2020-Sep-26 21:23 170 4 gusting 6 30.0
2020-Sep-26 21:18 180 5 gusting 5 30.0
2020-Sep-26 21:13 180 5 gusting 6 30.0
2020-Sep-26 21:08 152 4 gusting 6 30.0
2020-Sep-26 21:03 184 4 gusting 6 30.0
2020-Sep-26 20:58 135 4 gusting 5 30.0
2020-Sep-26 20:53 152 4 gusting 6 30.0
2020-Sep-26 20:48 172 4 gusting 5 30.0
2020-Sep-26 20:43 164 3 gusting 6 30.0
2020-Sep-26 20:38 141 4 gusting 6 31.1
2020-Sep-26 20:33 162 3 gusting 5 30.6
2020-Sep-26 20:28 146 1 gusting 5 30.6
2020-Sep-26 20:23 158 2 gusting 4 30.0
2020-Sep-26 20:18 147 4 gusting 5 30.0
2020-Sep-26 20:13 185 2 gusting 4 29.4
2020-Sep-26 20:08 155 2 gusting 5 29.4
2020-Sep-26 20:03 135 3 gusting 5 30.0
2020-Sep-26 19:58 165 0 gusting 1 32.2
2020-Sep-26 19:53 140 2 gusting 5 29.4
2020-Sep-26 19:48 131 2 gusting 5 29.4
2020-Sep-26 19:43 328 1 gusting 1 30.0
2020-Sep-26 19:38 28.9
2020-Sep-26 19:33 134 28.9
2020-Sep-26 19:28 091 1 gusting 2 28.9
2020-Sep-26 19:23 017 0 gusting 1 28.9
2020-Sep-26 19:18 226 0 gusting 0 29.4
2020-Sep-26 19:13 279 1 gusting 2 28.9
2020-Sep-26 19:08 082 0 gusting 4 29.4
2020-Sep-26 19:03 338 1 gusting 1 29.4
2020-Sep-26 18:58 208 1 gusting 2 28.9
2020-Sep-26 18:53 117 2 gusting 5 28.3
2020-Sep-26 18:48 333 2 gusting 4 29.4
2020-Sep-26 18:43 185 4 gusting 5 29.4
2020-Sep-26 18:38 120 2 gusting 4 28.9
2020-Sep-26 18:33 107 2 gusting 5 29.4
2020-Sep-26 18:28 163 1 gusting 2 31.1
2020-Sep-26 18:23 199 2 gusting 4 30.6
2020-Sep-26 18:18 243 1 gusting 2 31.1
2020-Sep-26 18:13 034 0 gusting 2 30.6
2020-Sep-26 18:08 075 1 gusting 2 29.4
2020-Sep-26 18:03 298 1 gusting 2 30.0
2020-Sep-26 17:58 066 0 gusting 1 28.9
2020-Sep-26 17:53 128 1 gusting 1 28.3
2020-Sep-26 17:48 194 0 gusting 1 28.9
2020-Sep-26 17:43 139 1 gusting 2 28.3
2020-Sep-26 17:38 310 0 gusting 1 28.3
2020-Sep-26 17:33 347 1 gusting 1 28.3
2020-Sep-26 17:28 091 2 gusting 4 28.3
2020-Sep-26 17:23 133 1 gusting 4 28.9
2020-Sep-26 17:18 302 1 gusting 2 29.4
2020-Sep-26 17:13 050 1 gusting 4 29.4
2020-Sep-26 17:08 273 1 gusting 2 29.4
2020-Sep-26 17:03 348 1 gusting 2 29.4
2020-Sep-26 16:58 301 1 gusting 4 29.4
2020-Sep-26 16:53 347 2 gusting 5 29.4
2020-Sep-26 16:48 327 2 gusting 5 28.3
2020-Sep-26 16:43 305 2 gusting 5 28.3
2020-Sep-26 16:38 118 1 gusting 4 30.0
2020-Sep-26 16:33 029 2 gusting 4 29.4
2020-Sep-26 16:28 312 2 gusting 5 29.4
2020-Sep-26 16:23 291 1 gusting 2 30.6
2020-Sep-26 16:18 045 1 gusting 2 28.3
2020-Sep-26 16:13 302 2 gusting 5 28.3
2020-Sep-26 16:08 112 2 gusting 5 29.4
2020-Sep-26 16:03 011 2 gusting 5 28.9
2020-Sep-26 15:58 315 2 gusting 4 29.4
2020-Sep-26 15:53 200 2 gusting 4 28.9
2020-Sep-26 15:48 287 2 gusting 4 28.9
2020-Sep-26 15:43 283 1 gusting 5 28.9
2020-Sep-26 15:38 219 1 gusting 4 28.3
2020-Sep-26 15:33 047 2 gusting 5 27.8
2020-Sep-26 15:28 112 2 gusting 2 27.8
2020-Sep-26 15:23 129 2 gusting 4 27.8
2020-Sep-26 15:18 262 2 gusting 5 27.2
2020-Sep-26 15:13 052 2 gusting 2 26.7
2020-Sep-26 15:08 335 2 gusting 4 26.7
2020-Sep-26 15:03 328 1 gusting 6 27.2
2020-Sep-26 14:58 045 2 gusting 4 27.8
2020-Sep-26 14:53 323 2 gusting 5 26.1
2020-Sep-26 14:48 311 2 gusting 4 25.6
2020-Sep-26 14:43 007 2 gusting 2 25.0
2020-Sep-26 14:38 302 1 gusting 2 25.0
2020-Sep-26 14:33 004 2 gusting 4 25.0
2020-Sep-26 14:23 318 2 gusting 2 24.4
2020-Sep-26 14:18 319 2 gusting 4 24.4
2020-Sep-26 14:13 011 0 gusting 2 25.0
2020-Sep-26 14:08 330 1 gusting 2 24.4
2020-Sep-26 14:03 337 1 gusting 4 24.4
2020-Sep-26 13:58 315 2 gusting 5 24.4
2020-Sep-26 13:53 24.4
2020-Sep-26 13:48 006 1 gusting 5 25.0
2020-Sep-26 13:43 301 1 gusting 5 25.0
2020-Sep-26 13:38 286 1 gusting 2 24.4
2020-Sep-26 13:33 274 1 gusting 4 23.9
2020-Sep-26 13:28 298 2 gusting 4 22.8
2020-Sep-26 13:23 336 2 gusting 4 22.8
2020-Sep-26 13:18 356 1 gusting 2 22.2
2020-Sep-26 13:13 292 1 gusting 2 22.2
2020-Sep-26 13:08 307 1 gusting 1 22.2
2020-Sep-26 13:03 322 1 gusting 2 21.7
2020-Sep-26 12:58 296 1 gusting 2 21.7
2020-Sep-26 12:53 294 1 gusting 1 21.7
2020-Sep-26 12:48 311 1 gusting 1 21.7
2020-Sep-26 12:43 330 0 gusting 1 21.7
2020-Sep-26 12:38 354 21.1
2020-Sep-26 12:33 011 0 gusting 2 21.1
2020-Sep-26 12:28 315 1 gusting 5 21.1
2020-Sep-26 12:23 294 2 gusting 4 21.1
2020-Sep-26 12:18 336 1 gusting 4 21.1
2020-Sep-26 12:13 001 21.1
2020-Sep-26 12:08 252 0 gusting 1 21.7
2020-Sep-26 12:03 270 21.7
2020-Sep-26 11:58 063 0 gusting 1 21.7
2020-Sep-26 11:53 339 0 gusting 2 21.7
2020-Sep-26 11:48 270 21.7
2020-Sep-26 11:43 347 1 gusting 2 21.1
2020-Sep-26 11:38 281 1 gusting 1 21.1
2020-Sep-26 11:33 292 1 gusting 2 21.1
2020-Sep-26 11:28 311 1 gusting 1 21.1
2020-Sep-26 11:23 059 0 gusting 1 21.1
2020-Sep-26 11:18 275 0 gusting 2 21.1
2020-Sep-26 11:13 282 0 gusting 1 21.1
2020-Sep-26 11:08 349 1 gusting 4 21.1
2020-Sep-26 11:03 331 1 gusting 4 21.1
2020-Sep-26 10:58 293 1 gusting 1 21.1
2020-Sep-26 10:53 317 1 gusting 2 21.1
2020-Sep-26 10:48 355 0 gusting 1 21.1
2020-Sep-26 10:43 327 2 gusting 2 21.1
2020-Sep-26 10:38 347 1 gusting 2 21.1
2020-Sep-26 10:33 338 1 gusting 2 21.1
2020-Sep-26 10:28 315 1 gusting 2 21.1
2020-Sep-26 10:23 279 0 gusting 1 21.1
2020-Sep-26 10:18 277 0 gusting 2 21.1
2020-Sep-26 10:13 295 0 gusting 1 21.1
2020-Sep-26 10:08 325 21.1
2020-Sep-26 10:03 336 1 gusting 1 21.1
2020-Sep-26 09:58 281 0 gusting 1 21.1
2020-Sep-26 09:53 325 0 gusting 1 21.1
2020-Sep-26 09:48 252 0 gusting 0 21.1
2020-Sep-26 09:43 292 0 gusting 1 21.1
2020-Sep-26 09:38 319 0 gusting 1 21.1
2020-Sep-26 09:33 354 0 gusting 1 21.1
2020-Sep-26 09:28 347 1 gusting 1 21.1
2020-Sep-26 09:23 312 1 gusting 1 21.1
2020-Sep-26 09:18 317 1 gusting 2 21.1
2020-Sep-26 09:13 305 1 gusting 2 21.1
2020-Sep-26 09:08 010 1 gusting 4 21.1
2020-Sep-26 09:03 052 2 gusting 4 21.1
2020-Sep-26 08:58 350 1 gusting 2 21.1
2020-Sep-26 08:53 304 1 gusting 1 21.1
2020-Sep-26 08:48 292 1 gusting 2 21.1
2020-Sep-26 08:43 338 1 gusting 2 21.1
2020-Sep-26 08:38 303 1 gusting 2 21.7
2020-Sep-26 08:33 300 1 gusting 2 21.7
2020-Sep-26 08:28 290 1 gusting 2 21.7
2020-Sep-26 08:23 295 1 gusting 1 21.7
2020-Sep-26 08:18 334 1 gusting 1 21.7
2020-Sep-26 08:13 275 1 gusting 2 21.7
2020-Sep-26 08:08 285 1 gusting 4 21.7
2020-Sep-26 08:03 342 1 gusting 1 21.7
2020-Sep-26 07:58 345 1 gusting 2 21.7
2020-Sep-26 07:53 304 0 gusting 2 21.7
2020-Sep-26 07:48 21.7
2020-Sep-26 07:43 356 1 gusting 4 21.7
2020-Sep-26 07:38 328 21.7
2020-Sep-26 07:33 326 1 gusting 2 21.7
2020-Sep-26 07:28 344 1 gusting 1 21.1
2020-Sep-26 07:23 318 1 gusting 1 21.1
2020-Sep-26 07:18 293 1 gusting 1 21.1
2020-Sep-26 07:13 285 21.1
2020-Sep-26 07:08 280 21.1
2020-Sep-26 07:03 280 21.1
2020-Sep-26 06:58 315 21.1
2020-Sep-26 06:53 331 21.1
2020-Sep-26 06:48 277 21.1
2020-Sep-26 06:43 270 1 gusting 2 21.1
2020-Sep-26 06:38 343 1 gusting 1 21.1
2020-Sep-26 06:33 316 0 gusting 1 21.1
2020-Sep-26 06:28 297 21.1
2020-Sep-26 06:23 270 21.1
2020-Sep-26 06:18 270 21.1
2020-Sep-26 06:13 271 21.1
2020-Sep-26 06:08 330 0 gusting 0 21.1
2020-Sep-26 06:04 290 21.1
2020-Sep-26 05:58 288 21.1
2020-Sep-26 05:53 208 21.1
2020-Sep-26 05:48 315 21.1
2020-Sep-26 05:43 298 1 gusting 1 21.1
2020-Sep-26 05:38 315 1 gusting 1 21.1
2020-Sep-26 05:33 350 21.1
2020-Sep-26 05:28 304 0 gusting 1 21.1
2020-Sep-26 05:23 292 21.1
2020-Sep-26 05:18 292 21.1
2020-Sep-26 05:13 292 21.1
2020-Sep-26 05:08 292 21.7
2020-Sep-26 05:03 292 21.7
2020-Sep-26 04:58 270 21.7
2020-Sep-26 04:53 292 21.7
2020-Sep-26 04:48 308 21.7
2020-Sep-26 04:43 003 21.7
2020-Sep-26 04:38 324 1 gusting 1 21.7
2020-Sep-26 04:33 309 21.7
2020-Sep-26 04:28 249 0 gusting 1 21.7
2020-Sep-26 04:18 290 0 gusting 1 21.7
2020-Sep-26 04:13 331 21.7
2020-Sep-26 04:08 043 21.7
2020-Sep-26 04:03 095 0 gusting 1 21.7
2020-Sep-26 03:58 020 21.7
2020-Sep-26 03:53 232 0 gusting 1 21.7
2020-Sep-26 03:48 292 21.7
2020-Sep-26 03:43 086 0 gusting 0 21.7
2020-Sep-26 03:38 080 21.7
2020-Sep-26 03:33 352 0 gusting 1 21.7
2020-Sep-26 03:28 326 1 gusting 1 21.7
2020-Sep-26 03:23 315 21.7
2020-Sep-26 03:18 341 0 gusting 0 21.7
2020-Sep-26 03:13 082 0 gusting 1 21.7
2020-Sep-26 03:08 047 0 gusting 1 21.7
2020-Sep-26 03:03 293 21.7
2020-Sep-26 02:58 065 0 gusting 1 21.7
2020-Sep-26 02:53 099 21.7
2020-Sep-26 02:48 289 21.7
2020-Sep-26 02:43 007 22.2
2020-Sep-26 02:38 112 1 gusting 1 22.2
2020-Sep-26 02:33 308 22.2
2020-Sep-26 02:28 089 22.2
2020-Sep-26 02:23 279 22.2
2020-Sep-26 02:18 275 0 gusting 0 22.2
2020-Sep-26 02:13 291 22.2
2020-Sep-26 02:08 109 22.2
2020-Sep-26 02:03 270 22.8
2020-Sep-26 01:58 315 22.8
2020-Sep-26 01:53 332 22.8
2020-Sep-26 01:48 059 22.8
2020-Sep-26 01:43 340 22.8
2020-Sep-26 01:38 341 22.8
2020-Sep-26 01:33 055 23.3
2020-Sep-26 01:28 322 0 gusting 1 23.3
2020-Sep-26 01:23 273 0 gusting 0 23.3
2020-Sep-26 01:18 307 23.3
2020-Sep-26 01:13 282 23.9
2020-Sep-26 01:08 316 23.9
2020-Sep-26 01:03 319 23.9
2020-Sep-26 00:58 282 24.4
2020-Sep-26 00:53 315 24.4
2020-Sep-26 00:48 090 24.4
2020-Sep-26 00:43 283 25.0
2020-Sep-26 00:38 251 25.0
2020-Sep-26 00:33 335 25.0
2020-Sep-26 00:28 038 25.0
2020-Sep-26 00:23 048 0 gusting 0 25.0
2020-Sep-26 00:18 098 0 gusting 0 25.6
2020-Sep-26 00:13 320 25.6
2020-Sep-26 00:08 337 25.6
2020-Sep-26 00:03 282 26.1
2020-Sep-25 23:58 334 26.1
2020-Sep-25 23:53 101 26.1
2020-Sep-25 23:48 050 26.7
2020-Sep-25 23:43 272 0 gusting 0 26.7
2020-Sep-25 23:38 304 0 gusting 1 27.2
2020-Sep-25 23:33 292 0 gusting 1 27.2
2020-Sep-25 23:28 319 1 gusting 2 27.8
2020-Sep-25 23:23 289 27.8
2020-Sep-25 23:18 292 0 gusting 1 27.8
2020-Sep-25 23:13 28.3
2020-Sep-25 23:08 319 0 gusting 0 28.3
2020-Sep-25 23:03 297 0 gusting 1 28.3
2020-Sep-25 22:58 289 0 gusting 1 28.9
2020-Sep-25 22:53 316 28.9
2020-Sep-25 22:48 322 1 gusting 1 28.9
2020-Sep-25 22:43 322 1 gusting 2 28.9
2020-Sep-25 22:38 300 2 gusting 2 28.3
2020-Sep-25 22:33 165 1 gusting 1 27.8
2020-Sep-25 22:28 308 1 gusting 1 28.3
2020-Sep-25 22:23 270 28.3
2020-Sep-25 22:18 184 1 gusting 1 28.3
2020-Sep-25 22:13 190 1 gusting 1 28.3
2020-Sep-25 22:08 110 1 gusting 1 27.8
2020-Sep-25 22:03 202 1 gusting 1 27.8